sensor_id;sensor_type;location;lat;lon;timestamp;temperature;humidity
52859;DHT22;38721;53.098;6.596;2023-06-22T00:02:05;16.60;99.90
52859;DHT22;38721;53.098;6.596;2023-06-22T00:04:32;16.50;99.90
52859;DHT22;38721;53.098;6.596;2023-06-22T00:07:00;16.50;99.90
52859;DHT22;38721;53.098;6.596;2023-06-22T00:09:26;16.60;99.90
52859;DHT22;38721;53.098;6.596;2023-06-22T00:11:52;16.30;99.90
52859;DHT22;38721;53.098;6.596;2023-06-22T00:14:17;16.30;99.90
52859;DHT22;38721;53.098;6.596;2023-06-22T00:16:45;16.30;99.90
52859;DHT22;38721;53.098;6.596;2023-06-22T00:19:14;16.30;99.90
52859;DHT22;38721;53.098;6.596;2023-06-22T00:21:40;16.20;99.90
52859;DHT22;38721;53.098;6.596;2023-06-22T00:24:06;16.10;99.90
52859;DHT22;38721;53.098;6.596;2023-06-22T00:26:32;16.00;99.90
52859;DHT22;38721;53.098;6.596;2023-06-22T00:28:57;15.90;99.90
52859;DHT22;38721;53.098;6.596;2023-06-22T00:31:25;15.90;99.90
52859;DHT22;38721;53.098;6.596;2023-06-22T00:33:51;15.90;99.90
52859;DHT22;38721;53.098;6.596;2023-06-22T00:36:17;15.90;99.90
52859;DHT22;38721;53.098;6.596;2023-06-22T00:38:43;15.70;99.90
52859;DHT22;38721;53.098;6.596;2023-06-22T00:41:09;15.60;99.90
52859;DHT22;38721;53.098;6.596;2023-06-22T00:43:34;15.60;99.90
52859;DHT22;38721;53.098;6.596;2023-06-22T00:46:00;15.60;99.90
52859;DHT22;38721;53.098;6.596;2023-06-22T00:48:29;15.60;99.90
52859;DHT22;38721;53.098;6.596;2023-06-22T00:50:54;15.50;99.90
52859;DHT22;38721;53.098;6.596;2023-06-22T00:53:21;15.50;99.90
52859;DHT22;38721;53.098;6.596;2023-06-22T00:55:48;15.40;99.90
52859;DHT22;38721;53.098;6.596;2023-06-22T00:58:17;15.20;99.90
52859;DHT22;38721;53.098;6.596;2023-06-22T01:00:47;15.20;99.90
52859;DHT22;38721;53.098;6.596;2023-06-22T01:03:13;15.30;99.90
52859;DHT22;38721;53.098;6.596;2023-06-22T01:05:39;15.30;99.90
52859;DHT22;38721;53.098;6.596;2023-06-22T01:10:57;15.10;99.90
52859;DHT22;38721;53.098;6.596;2023-06-22T01:16:33;15.20;99.90
52859;DHT22;38721;53.098;6.596;2023-06-22T01:19:51;15.30;99.90
52859;DHT22;38721;53.098;6.596;2023-06-22T01:21:52;15.30;99.90
52859;DHT22;38721;53.098;6.596;2023-06-22T01:24:26;15.30;99.90
52859;DHT22;38721;53.098;6.596;2023-06-22T01:29:38;15.10;99.90
52859;DHT22;38721;53.098;6.596;2023-06-22T01:32:06;15.20;99.90
52859;DHT22;38721;53.098;6.596;2023-06-22T01:34:32;15.00;99.90
52859;DHT22;38721;53.098;6.596;2023-06-22T01:36:59;14.80;99.90
52859;DHT22;38721;53.098;6.596;2023-06-22T01:39:26;14.80;99.90
52859;DHT22;38721;53.098;6.596;2023-06-22T01:41:53;14.90;99.90
52859;DHT22;38721;53.098;6.596;2023-06-22T01:44:20;14.90;99.90
52859;DHT22;38721;53.098;6.596;2023-06-22T01:46:48;14.90;99.90
52859;DHT22;38721;53.098;6.596;2023-06-22T01:49:15;14.90;99.90
52859;DHT22;38721;53.098;6.596;2023-06-22T01:51:40;14.90;99.90
52859;DHT22;38721;53.098;6.596;2023-06-22T01:54:07;14.80;99.90
52859;DHT22;38721;53.098;6.596;2023-06-22T01:56:33;14.80;99.90
52859;DHT22;38721;53.098;6.596;2023-06-22T01:59:34;14.80;99.90
52859;DHT22;38721;53.098;6.596;2023-06-22T02:02:09;14.70;99.90
52859;DHT22;38721;53.098;6.596;2023-06-22T02:04:50;14.60;99.90
52859;DHT22;38721;53.098;6.596;2023-06-22T02:07:18;14.70;99.90
52859;DHT22;38721;53.098;6.596;2023-06-22T02:09:45;14.70;99.90
52859;DHT22;38721;53.098;6.596;2023-06-22T02:12:24;14.70;99.90
52859;DHT22;38721;53.098;6.596;2023-06-22T02:14:51;14.70;99.90
52859;DHT22;38721;53.098;6.596;2023-06-22T02:17:18;14.60;99.90
52859;DHT22;38721;53.098;6.596;2023-06-22T02:19:44;14.80;99.90
52859;DHT22;38721;53.098;6.596;2023-06-22T02:22:21;14.80;99.90
52859;DHT22;38721;53.098;6.596;2023-06-22T02:24:50;14.70;99.90
52859;DHT22;38721;53.098;6.596;2023-06-22T02:27:16;14.50;99.90
52859;DHT22;38721;53.098;6.596;2023-06-22T02:29:45;14.50;99.90
52859;DHT22;38721;53.098;6.596;2023-06-22T02:32:13;14.70;99.90
52859;DHT22;38721;53.098;6.596;2023-06-22T02:34:42;15.00;99.90
52859;DHT22;38721;53.098;6.596;2023-06-22T02:37:13;15.00;99.90
52859;DHT22;38721;53.098;6.596;2023-06-22T02:39:40;14.80;99.90
52859;DHT22;38721;53.098;6.596;2023-06-22T02:42:06;14.70;99.90
52859;DHT22;38721;53.098;6.596;2023-06-22T02:44:34;14.60;99.90
52859;DHT22;38721;53.098;6.596;2023-06-22T02:47:00;14.60;99.90
52859;DHT22;38721;53.098;6.596;2023-06-22T02:49:26;14.60;99.90
52859;DHT22;38721;53.098;6.596;2023-06-22T02:51:51;14.40;99.90
52859;DHT22;38721;53.098;6.596;2023-06-22T02:54:17;14.50;99.90
52859;DHT22;38721;53.098;6.596;2023-06-22T02:56:46;14.50;99.90
52859;DHT22;38721;53.098;6.596;2023-06-22T02:59:11;14.40;99.90
52859;DHT22;38721;53.098;6.596;2023-06-22T03:01:37;14.20;99.90
52859;DHT22;38721;53.098;6.596;2023-06-22T03:04:06;14.20;99.90
52859;DHT22;38721;53.098;6.596;2023-06-22T03:06:33;14.20;99.90
52859;DHT22;38721;53.098;6.596;2023-06-22T03:09:03;14.30;99.90
52859;DHT22;38721;53.098;6.596;2023-06-22T03:11:33;14.20;99.90
52859;DHT22;38721;53.098;6.596;2023-06-22T03:14:00;14.10;99.90
52859;DHT22;38721;53.098;6.596;2023-06-22T03:16:26;14.10;99.90
52859;DHT22;38721;53.098;6.596;2023-06-22T03:18:55;14.10;99.90
52859;DHT22;38721;53.098;6.596;2023-06-22T03:21:22;14.20;99.90
52859;DHT22;38721;53.098;6.596;2023-06-22T03:23:48;13.90;99.90
52859;DHT22;38721;53.098;6.596;2023-06-22T03:26:17;14.00;99.90
52859;DHT22;38721;53.098;6.596;2023-06-22T03:28:43;14.00;99.90
52859;DHT22;38721;53.098;6.596;2023-06-22T03:31:09;14.10;99.90
52859;DHT22;38721;53.098;6.596;2023-06-22T03:33:34;14.10;99.90
52859;DHT22;38721;53.098;6.596;2023-06-22T03:36:00;14.10;99.90
52859;DHT22;38721;53.098;6.596;2023-06-22T03:38:26;14.10;99.90
52859;DHT22;38721;53.098;6.596;2023-06-22T03:40:52;14.20;99.90
52859;DHT22;38721;53.098;6.596;2023-06-22T03:43:17;14.30;99.90
52859;DHT22;38721;53.098;6.596;2023-06-22T03:45:43;14.30;99.90
52859;DHT22;38721;53.098;6.596;2023-06-22T03:48:11;14.40;99.90
52859;DHT22;38721;53.098;6.596;2023-06-22T03:50:37;14.40;99.90
52859;DHT22;38721;53.098;6.596;2023-06-22T03:53:02;14.50;99.90
52859;DHT22;38721;53.098;6.596;2023-06-22T03:55:28;14.30;99.90
52859;DHT22;38721;53.098;6.596;2023-06-22T03:57:54;14.30;99.90
52859;DHT22;38721;53.098;6.596;2023-06-22T04:00:25;14.30;99.90
52859;DHT22;38721;53.098;6.596;2023-06-22T04:02:51;14.40;99.90
52859;DHT22;38721;53.098;6.596;2023-06-22T04:05:16;14.40;99.90
52859;DHT22;38721;53.098;6.596;2023-06-22T04:07:45;14.50;99.90
52859;DHT22;38721;53.098;6.596;2023-06-22T04:10:10;14.60;99.90
52859;DHT22;38721;53.098;6.596;2023-06-22T04:12:36;14.60;99.90
52859;DHT22;38721;53.098;6.596;2023-06-22T04:15:02;14.60;99.90
52859;DHT22;38721;53.098;6.596;2023-06-22T04:17:27;14.70;99.90
52859;DHT22;38721;53.098;6.596;2023-06-22T04:19:53;14.70;99.90
52859;DHT22;38721;53.098;6.596;2023-06-22T04:22:19;14.80;99.90
52859;DHT22;38721;53.098;6.596;2023-06-22T04:24:45;14.80;99.90
52859;DHT22;38721;53.098;6.596;2023-06-22T04:27:10;15.00;99.90
52859;DHT22;38721;53.098;6.596;2023-06-22T04:29:36;15.10;99.90
52859;DHT22;38721;53.098;6.596;2023-06-22T04:32:03;15.20;99.90
52859;DHT22;38721;53.098;6.596;2023-06-22T04:34:31;15.30;99.90
52859;DHT22;38721;53.098;6.596;2023-06-22T04:36:57;15.30;99.90
52859;DHT22;38721;53.098;6.596;2023-06-22T04:39:23;15.50;99.90
52859;DHT22;38721;53.098;6.596;2023-06-22T04:41:49;15.70;99.90
52859;DHT22;38721;53.098;6.596;2023-06-22T04:44:17;15.70;99.90
52859;DHT22;38721;53.098;6.596;2023-06-22T04:46:51;15.90;99.90
52859;DHT22;38721;53.098;6.596;2023-06-22T04:49:21;16.00;99.90
52859;DHT22;38721;53.098;6.596;2023-06-22T04:51:47;16.00;99.90
52859;DHT22;38721;53.098;6.596;2023-06-22T04:54:13;16.20;99.90
52859;DHT22;38721;53.098;6.596;2023-06-22T04:56:39;16.40;99.90
52859;DHT22;38721;53.098;6.596;2023-06-22T04:59:06;16.50;99.90
52859;DHT22;38721;53.098;6.596;2023-06-22T05:01:33;16.80;99.90
52859;DHT22;38721;53.098;6.596;2023-06-22T05:04:00;16.90;99.90
52859;DHT22;38721;53.098;6.596;2023-06-22T05:06:27;17.10;99.90
52859;DHT22;38721;53.098;6.596;2023-06-22T05:08:57;17.10;99.90
52859;DHT22;38721;53.098;6.596;2023-06-22T05:11:26;17.30;99.90
52859;DHT22;38721;53.098;6.596;2023-06-22T05:13:53;17.40;99.90
52859;DHT22;38721;53.098;6.596;2023-06-22T05:16:20;17.50;99.90
52859;DHT22;38721;53.098;6.596;2023-06-22T05:18:55;17.50;99.90
52859;DHT22;38721;53.098;6.596;2023-06-22T05:21:23;17.70;99.90
52859;DHT22;38721;53.098;6.596;2023-06-22T05:23:50;17.70;99.90
52859;DHT22;38721;53.098;6.596;2023-06-22T05:26:16;17.90;99.90
52859;DHT22;38721;53.098;6.596;2023-06-22T05:28:41;17.90;99.90
52859;DHT22;38721;53.098;6.596;2023-06-22T05:31:14;18.10;99.90
52859;DHT22;38721;53.098;6.596;2023-06-22T05:33:41;18.30;99.90
52859;DHT22;38721;53.098;6.596;2023-06-22T05:36:10;18.40;99.90
52859;DHT22;38721;53.098;6.596;2023-06-22T05:38:42;18.50;99.90
52859;DHT22;38721;53.098;6.596;2023-06-22T05:41:08;18.70;99.90
52859;DHT22;38721;53.098;6.596;2023-06-22T05:43:44;18.60;99.90
52859;DHT22;38721;53.098;6.596;2023-06-22T05:46:10;18.80;99.90
52859;DHT22;38721;53.098;6.596;2023-06-22T05:48:36;18.90;99.90
52859;DHT22;38721;53.098;6.596;2023-06-22T05:51:01;18.90;99.90
52859;DHT22;38721;53.098;6.596;2023-06-22T05:53:27;19.00;99.90
52859;DHT22;38721;53.098;6.596;2023-06-22T05:55:53;19.10;99.90
52859;DHT22;38721;53.098;6.596;2023-06-22T05:58:18;19.20;99.90
52859;DHT22;38721;53.098;6.596;2023-06-22T06:00:44;19.30;99.90
52859;DHT22;38721;53.098;6.596;2023-06-22T06:03:10;19.50;99.90
52859;DHT22;38721;53.098;6.596;2023-06-22T06:05:36;19.60;99.90
52859;DHT22;38721;53.098;6.596;2023-06-22T06:08:05;19.80;99.90
52859;DHT22;38721;53.098;6.596;2023-06-22T06:10:31;19.90;99.90
52859;DHT22;38721;53.098;6.596;2023-06-22T06:12:57;19.90;99.90
52859;DHT22;38721;53.098;6.596;2023-06-22T06:15:26;20.10;99.90
52859;DHT22;38721;53.098;6.596;2023-06-22T06:17:52;20.30;99.90
52859;DHT22;38721;53.098;6.596;2023-06-22T06:20:21;20.50;99.90
52859;DHT22;38721;53.098;6.596;2023-06-22T06:22:47;20.50;99.90
52859;DHT22;38721;53.098;6.596;2023-06-22T06:25:16;20.50;99.90
52859;DHT22;38721;53.098;6.596;2023-06-22T06:27:46;20.50;99.90
52859;DHT22;38721;53.098;6.596;2023-06-22T06:30:12;20.50;99.90
52859;DHT22;38721;53.098;6.596;2023-06-22T06:32:38;20.70;99.90
52859;DHT22;38721;53.098;6.596;2023-06-22T06:35:09;20.80;99.90
52859;DHT22;38721;53.098;6.596;2023-06-22T06:37:45;20.90;99.90
52859;DHT22;38721;53.098;6.596;2023-06-22T06:40:12;21.10;99.90
52859;DHT22;38721;53.098;6.596;2023-06-22T06:42:40;21.20;99.90
52859;DHT22;38721;53.098;6.596;2023-06-22T06:45:11;21.30;99.90
52859;DHT22;38721;53.098;6.596;2023-06-22T06:47:37;21.50;99.90
52859;DHT22;38721;53.098;6.596;2023-06-22T06:50:04;21.60;99.90
52859;DHT22;38721;53.098;6.596;2023-06-22T06:52:30;21.80;99.90
52859;DHT22;38721;53.098;6.596;2023-06-22T06:54:56;21.90;99.90
52859;DHT22;38721;53.098;6.596;2023-06-22T06:57:22;22.20;99.90
52859;DHT22;38721;53.098;6.596;2023-06-22T06:59:48;22.10;99.90
52859;DHT22;38721;53.098;6.596;2023-06-22T07:02:15;22.10;99.90
52859;DHT22;38721;53.098;6.596;2023-06-22T07:04:40;22.20;99.90
52859;DHT22;38721;53.098;6.596;2023-06-22T07:07:06;22.20;99.90
52859;DHT22;38721;53.098;6.596;2023-06-22T07:09:35;22.10;99.90
52859;DHT22;38721;53.098;6.596;2023-06-22T07:12:01;22.30;99.90
52859;DHT22;38721;53.098;6.596;2023-06-22T07:14:26;22.30;99.90
52859;DHT22;38721;53.098;6.596;2023-06-22T07:16:52;22.40;99.90
52859;DHT22;38721;53.098;6.596;2023-06-22T07:19:24;22.50;99.90
52859;DHT22;38721;53.098;6.596;2023-06-22T07:21:51;22.50;99.90
52859;DHT22;38721;53.098;6.596;2023-06-22T07:24:16;22.30;99.90
52859;DHT22;38721;53.098;6.596;2023-06-22T07:26:42;22.30;99.90
52859;DHT22;38721;53.098;6.596;2023-06-22T07:29:11;22.30;99.90
52859;DHT22;38721;53.098;6.596;2023-06-22T07:31:37;22.20;99.90
52859;DHT22;38721;53.098;6.596;2023-06-22T07:34:05;22.20;99.90
52859;DHT22;38721;53.098;6.596;2023-06-22T07:36:31;22.30;99.90
52859;DHT22;38721;53.098;6.596;2023-06-22T07:38:56;22.30;99.90
52859;DHT22;38721;53.098;6.596;2023-06-22T07:41:22;22.50;99.90
52859;DHT22;38721;53.098;6.596;2023-06-22T07:43:48;22.40;99.90
52859;DHT22;38721;53.098;6.596;2023-06-22T07:46:14;22.60;99.90
52859;DHT22;38721;53.098;6.596;2023-06-22T07:48:39;22.50;99.90
52859;DHT22;38721;53.098;6.596;2023-06-22T07:51:07;22.70;99.90
52859;DHT22;38721;53.098;6.596;2023-06-22T07:53:33;22.80;99.90
52859;DHT22;38721;53.098;6.596;2023-06-22T07:55:59;23.00;99.90
52859;DHT22;38721;53.098;6.596;2023-06-22T07:58:24;23.00;99.90
52859;DHT22;38721;53.098;6.596;2023-06-22T08:00:50;22.50;99.90
52859;DHT22;38721;53.098;6.596;2023-06-22T08:03:16;23.00;99.90
52859;DHT22;38721;53.098;6.596;2023-06-22T08:05:41;23.10;99.90
52859;DHT22;38721;53.098;6.596;2023-06-22T08:08:07;23.30;99.90
52859;DHT22;38721;53.098;6.596;2023-06-22T08:10:32;23.10;99.90
52859;DHT22;38721;53.098;6.596;2023-06-22T08:12:58;23.30;99.90
52859;DHT22;38721;53.098;6.596;2023-06-22T08:15:25;23.50;99.90
52859;DHT22;38721;53.098;6.596;2023-06-22T08:17:52;23.50;99.90
52859;DHT22;38721;53.098;6.596;2023-06-22T08:20:18;23.60;99.90
52859;DHT22;38721;53.098;6.596;2023-06-22T08:22:43;23.80;99.90
52859;DHT22;38721;53.098;6.596;2023-06-22T08:25:09;23.80;99.90
52859;DHT22;38721;53.098;6.596;2023-06-22T08:27:35;23.70;99.90
52859;DHT22;38721;53.098;6.596;2023-06-22T08:30:02;23.50;99.90
52859;DHT22;38721;53.098;6.596;2023-06-22T08:32:31;23.80;99.90
52859;DHT22;38721;53.098;6.596;2023-06-22T08:34:59;23.60;99.90
52859;DHT22;38721;53.098;6.596;2023-06-22T08:37:25;23.80;99.90
52859;DHT22;38721;53.098;6.596;2023-06-22T08:39:59;23.80;99.90
52859;DHT22;38721;53.098;6.596;2023-06-22T08:42:26;24.00;99.90
52859;DHT22;38721;53.098;6.596;2023-06-22T08:44:52;24.10;99.90
52859;DHT22;38721;53.098;6.596;2023-06-22T08:47:19;24.10;99.90
52859;DHT22;38721;53.098;6.596;2023-06-22T08:49:45;23.50;99.90
52859;DHT22;38721;53.098;6.596;2023-06-22T08:52:11;24.10;99.90
52859;DHT22;38721;53.098;6.596;2023-06-22T08:54:39;24.40;99.90
52859;DHT22;38721;53.098;6.596;2023-06-22T08:57:05;24.10;99.90
52859;DHT22;38721;53.098;6.596;2023-06-22T08:59:30;24.30;99.90
52859;DHT22;38721;53.098;6.596;2023-06-22T09:01:56;24.30;99.90
52859;DHT22;38721;53.098;6.596;2023-06-22T09:04:24;24.50;99.90
52859;DHT22;38721;53.098;6.596;2023-06-22T09:06:50;24.60;99.90
52859;DHT22;38721;53.098;6.596;2023-06-22T09:09:18;24.70;99.90
52859;DHT22;38721;53.098;6.596;2023-06-22T09:11:44;24.70;99.90
52859;DHT22;38721;53.098;6.596;2023-06-22T09:14:10;24.90;99.90
52859;DHT22;38721;53.098;6.596;2023-06-22T09:16:36;24.40;99.90
52859;DHT22;38721;53.098;6.596;2023-06-22T09:19:01;24.60;99.90
52859;DHT22;38721;53.098;6.596;2023-06-22T09:21:27;24.90;99.90
52859;DHT22;38721;53.098;6.596;2023-06-22T09:23:53;25.10;99.90
52859;DHT22;38721;53.098;6.596;2023-06-22T09:26:22;24.50;99.90
52859;DHT22;38721;53.098;6.596;2023-06-22T09:28:49;24.70;99.90
52859;DHT22;38721;53.098;6.596;2023-06-22T09:31:15;24.90;99.90
52859;DHT22;38721;53.098;6.596;2023-06-22T09:33:42;25.00;99.90
52859;DHT22;38721;53.098;6.596;2023-06-22T09:36:07;25.10;99.90
52859;DHT22;38721;53.098;6.596;2023-06-22T09:38:37;25.00;99.90
52859;DHT22;38721;53.098;6.596;2023-06-22T09:41:03;24.90;99.90
52859;DHT22;38721;53.098;6.596;2023-06-22T09:43:30;25.40;99.90
52859;DHT22;38721;53.098;6.596;2023-06-22T09:45:56;25.50;99.90
52859;DHT22;38721;53.098;6.596;2023-06-22T09:48:22;25.10;99.90
52859;DHT22;38721;53.098;6.596;2023-06-22T09:50:47;25.40;99.90
52859;DHT22;38721;53.098;6.596;2023-06-22T09:53:13;25.50;99.90
52859;DHT22;38721;53.098;6.596;2023-06-22T09:55:38;25.90;99.90
52859;DHT22;38721;53.098;6.596;2023-06-22T09:58:05;25.90;99.90
52859;DHT22;38721;53.098;6.596;2023-06-22T10:00:30;25.70;99.90
52859;DHT22;38721;53.098;6.596;2023-06-22T10:02:56;25.60;99.90
52859;DHT22;38721;53.098;6.596;2023-06-22T10:05:22;25.40;99.90
52859;DHT22;38721;53.098;6.596;2023-06-22T10:07:48;25.80;99.90
52859;DHT22;38721;53.098;6.596;2023-06-22T10:10:14;26.10;99.90
52859;DHT22;38721;53.098;6.596;2023-06-22T10:12:54;26.50;99.90
52859;DHT22;38721;53.098;6.596;2023-06-22T10:15:20;26.80;97.80
52859;DHT22;38721;53.098;6.596;2023-06-22T10:17:49;26.70;6.20
52859;DHT22;38721;53.098;6.596;2023-06-22T10:20:15;26.70;1.00
52859;DHT22;38721;53.098;6.596;2023-06-22T10:22:44;26.50;99.90
52859;DHT22;38721;53.098;6.596;2023-06-22T10:25:11;26.60;1.00
52859;DHT22;38721;53.098;6.596;2023-06-22T10:27:37;26.80;1.00
52859;DHT22;38721;53.098;6.596;2023-06-22T10:30:11;27.00;99.90
52859;DHT22;38721;53.098;6.596;2023-06-22T10:32:40;26.60;1.00
52859;DHT22;38721;53.098;6.596;2023-06-22T10:35:06;26.30;1.00
52859;DHT22;38721;53.098;6.596;2023-06-22T10:37:33;25.80;99.90
52859;DHT22;38721;53.098;6.596;2023-06-22T10:39:58;26.60;99.90
52859;DHT22;38721;53.098;6.596;2023-06-22T10:42:24;27.00;1.00
52859;DHT22;38721;53.098;6.596;2023-06-22T10:44:50;26.60;1.00
52859;DHT22;38721;53.098;6.596;2023-06-22T10:47:16;27.30;99.90
52859;DHT22;38721;53.098;6.596;2023-06-22T10:49:41;27.60;1.00
52859;DHT22;38721;53.098;6.596;2023-06-22T10:52:08;27.80;1.00
52859;DHT22;38721;53.098;6.596;2023-06-22T10:54:34;27.00;1.00
52859;DHT22;38721;53.098;6.596;2023-06-22T10:57:01;27.50;99.90
52859;DHT22;38721;53.098;6.596;2023-06-22T10:59:27;28.00;99.90
52859;DHT22;38721;53.098;6.596;2023-06-22T11:01:54;27.80;99.90
52859;DHT22;38721;53.098;6.596;2023-06-22T11:04:20;27.50;99.90
52859;DHT22;38721;53.098;6.596;2023-06-22T11:06:47;27.90;92.30
52859;DHT22;38721;53.098;6.596;2023-06-22T11:09:16;27.30;99.90
52859;DHT22;38721;53.098;6.596;2023-06-22T11:11:50;26.80;99.90
52859;DHT22;38721;53.098;6.596;2023-06-22T11:14:16;27.30;29.10
52859;DHT22;38721;53.098;6.596;2023-06-22T11:16:42;26.90;99.90
52859;DHT22;38721;53.098;6.596;2023-06-22T11:19:07;27.40;1.00
52859;DHT22;38721;53.098;6.596;2023-06-22T11:21:33;27.50;1.00
52859;DHT22;38721;53.098;6.596;2023-06-22T11:23:59;27.20;99.90
52859;DHT22;38721;53.098;6.596;2023-06-22T11:26:31;26.80;1.00
52859;DHT22;38721;53.098;6.596;2023-06-22T11:28:57;27.20;99.90
52859;DHT22;38721;53.098;6.596;2023-06-22T11:31:24;27.30;99.90
52859;DHT22;38721;53.098;6.596;2023-06-22T11:33:49;27.50;99.90
52859;DHT22;38721;53.098;6.596;2023-06-22T11:36:15;27.40;99.90
52859;DHT22;38721;53.098;6.596;2023-06-22T11:38:41;27.40;99.90
52859;DHT22;38721;53.098;6.596;2023-06-22T11:41:08;27.60;1.00
52859;DHT22;38721;53.098;6.596;2023-06-22T11:43:37;27.80;99.90
52859;DHT22;38721;53.098;6.596;2023-06-22T11:46:05;27.70;99.90
52859;DHT22;38721;53.098;6.596;2023-06-22T11:48:31;27.50;99.90
52859;DHT22;38721;53.098;6.596;2023-06-22T11:50:57;28.10;99.90
52859;DHT22;38721;53.098;6.596;2023-06-22T11:53:26;27.70;1.00
52859;DHT22;38721;53.098;6.596;2023-06-22T11:55:52;28.00;99.90
52859;DHT22;38721;53.098;6.596;2023-06-22T11:58:21;28.20;99.90
52859;DHT22;38721;53.098;6.596;2023-06-22T12:00:48;28.00;1.00
52859;DHT22;38721;53.098;6.596;2023-06-22T12:03:13;27.50;1.00
52859;DHT22;38721;53.098;6.596;2023-06-22T12:05:40;27.50;99.90
52859;DHT22;38721;53.098;6.596;2023-06-22T12:08:06;27.10;8.50
52859;DHT22;38721;53.098;6.596;2023-06-22T12:10:32;27.30;99.90
52859;DHT22;38721;53.098;6.596;2023-06-22T12:12:57;27.90;1.00
52859;DHT22;38721;53.098;6.596;2023-06-22T12:15:25;27.30;99.90
52859;DHT22;38721;53.098;6.596;2023-06-22T12:17:51;27.70;99.90
52859;DHT22;38721;53.098;6.596;2023-06-22T12:20:16;27.70;1.00
52859;DHT22;38721;53.098;6.596;2023-06-22T12:22:42;28.00;1.00
52859;DHT22;38721;53.098;6.596;2023-06-22T12:25:08;26.90;99.90
52859;DHT22;38721;53.098;6.596;2023-06-22T12:27:37;27.00;10.60
52859;DHT22;38721;53.098;6.596;2023-06-22T12:30:04;27.20;1.00
52859;DHT22;38721;53.098;6.596;2023-06-22T12:32:30;27.20;75.50
52859;DHT22;38721;53.098;6.596;2023-06-22T12:34:56;27.20;53.10
52859;DHT22;38721;53.098;6.596;2023-06-22T12:37:22;26.60;99.90
52859;DHT22;38721;53.098;6.596;2023-06-22T12:39:48;26.90;99.90
52859;DHT22;38721;53.098;6.596;2023-06-22T12:42:14;26.50;1.00
52859;DHT22;38721;53.098;6.596;2023-06-22T12:44:40;26.20;99.90
52859;DHT22;38721;53.098;6.596;2023-06-22T12:47:06;27.10;1.00
52859;DHT22;38721;53.098;6.596;2023-06-22T12:49:34;26.70;99.90
52859;DHT22;38721;53.098;6.596;2023-06-22T12:52:00;27.10;99.90
52859;DHT22;38721;53.098;6.596;2023-06-22T12:54:26;27.50;1.00
52859;DHT22;38721;53.098;6.596;2023-06-22T12:56:52;27.60;1.00
52859;DHT22;38721;53.098;6.596;2023-06-22T12:59:17;27.00;99.90
52859;DHT22;38721;53.098;6.596;2023-06-22T13:01:43;26.90;99.90
52859;DHT22;38721;53.098;6.596;2023-06-22T13:04:13;27.30;99.90
52859;DHT22;38721;53.098;6.596;2023-06-22T13:06:44;27.30;99.90
52859;DHT22;38721;53.098;6.596;2023-06-22T13:09:13;27.50;99.90
52859;DHT22;38721;53.098;6.596;2023-06-22T13:11:42;26.90;99.90
52859;DHT22;38721;53.098;6.596;2023-06-22T13:14:08;26.20;1.00
52859;DHT22;38721;53.098;6.596;2023-06-22T13:16:34;26.60;99.90
52859;DHT22;38721;53.098;6.596;2023-06-22T13:19:00;26.20;99.90
52859;DHT22;38721;53.098;6.596;2023-06-22T13:21:25;26.60;30.30
52859;DHT22;38721;53.098;6.596;2023-06-22T13:23:51;26.00;99.90
52859;DHT22;38721;53.098;6.596;2023-06-22T13:26:17;25.70;1.00
52859;DHT22;38721;53.098;6.596;2023-06-22T13:28:43;25.90;1.00
52859;DHT22;38721;53.098;6.596;2023-06-22T13:31:11;25.60;99.90
52859;DHT22;38721;53.098;6.596;2023-06-22T13:33:37;26.00;99.90
52859;DHT22;38721;53.098;6.596;2023-06-22T13:36:04;26.10;99.90
52859;DHT22;38721;53.098;6.596;2023-06-22T13:38:31;25.90;1.00
52859;DHT22;38721;53.098;6.596;2023-06-22T13:40:57;25.40;99.90
52859;DHT22;38721;53.098;6.596;2023-06-22T13:43:27;25.60;1.00
52859;DHT22;38721;53.098;6.596;2023-06-22T13:45:52;25.10;99.90
52859;DHT22;38721;53.098;6.596;2023-06-22T13:48:18;25.00;99.90
52859;DHT22;38721;53.098;6.596;2023-06-22T13:50:48;25.10;1.00
52859;DHT22;38721;53.098;6.596;2023-06-22T13:53:14;24.70;94.00
52859;DHT22;38721;53.098;6.596;2023-06-22T13:55:40;24.60;99.90
52859;DHT22;38721;53.098;6.596;2023-06-22T13:58:06;24.50;99.90
52859;DHT22;38721;53.098;6.596;2023-06-22T14:00:32;24.30;2.60
52859;DHT22;38721;53.098;6.596;2023-06-22T14:02:57;24.30;1.00
52859;DHT22;38721;53.098;6.596;2023-06-22T14:05:23;24.30;99.90
52859;DHT22;38721;53.098;6.596;2023-06-22T14:07:49;24.30;99.90
52859;DHT22;38721;53.098;6.596;2023-06-22T14:10:14;23.90;99.90
52859;DHT22;38721;53.098;6.596;2023-06-22T14:12:40;24.00;1.00
52859;DHT22;38721;53.098;6.596;2023-06-22T14:15:06;23.90;25.50
52859;DHT22;38721;53.098;6.596;2023-06-22T14:17:34;23.90;99.90
52859;DHT22;38721;53.098;6.596;2023-06-22T14:20:00;23.90;99.90
52859;DHT22;38721;53.098;6.596;2023-06-22T14:22:29;24.00;99.90
52859;DHT22;38721;53.098;6.596;2023-06-22T14:24:55;24.00;99.90
52859;DHT22;38721;53.098;6.596;2023-06-22T14:27:23;23.90;99.90
52859;DHT22;38721;53.098;6.596;2023-06-22T14:29:48;23.90;99.90
52859;DHT22;38721;53.098;6.596;2023-06-22T14:32:14;23.70;99.90
52859;DHT22;38721;53.098;6.596;2023-06-22T14:34:39;23.70;99.90
52859;DHT22;38721;53.098;6.596;2023-06-22T14:37:06;23.60;99.90
52859;DHT22;38721;53.098;6.596;2023-06-22T14:39:33;23.50;99.90
52859;DHT22;38721;53.098;6.596;2023-06-22T14:41:59;23.60;99.90
52859;DHT22;38721;53.098;6.596;2023-06-22T14:44:26;23.50;99.90
52859;DHT22;38721;53.098;6.596;2023-06-22T14:46:54;23.50;99.90
52859;DHT22;38721;53.098;6.596;2023-06-22T14:49:20;23.60;99.90
52859;DHT22;38721;53.098;6.596;2023-06-22T14:51:45;23.20;99.90
52859;DHT22;38721;53.098;6.596;2023-06-22T14:54:11;23.50;99.90
52859;DHT22;38721;53.098;6.596;2023-06-22T14:56:37;23.40;99.90
52859;DHT22;38721;53.098;6.596;2023-06-22T14:59:02;23.20;99.90
52859;DHT22;38721;53.098;6.596;2023-06-22T15:01:28;23.10;99.90
52859;DHT22;38721;53.098;6.596;2023-06-22T15:03:53;23.10;99.90
52859;DHT22;38721;53.098;6.596;2023-06-22T15:06:20;23.00;99.90
52859;DHT22;38721;53.098;6.596;2023-06-22T15:08:46;23.00;99.90
52859;DHT22;38721;53.098;6.596;2023-06-22T15:11:12;22.90;99.90
52859;DHT22;38721;53.098;6.596;2023-06-22T15:13:41;22.70;99.90
52859;DHT22;38721;53.098;6.596;2023-06-22T15:16:07;22.80;99.90
52859;DHT22;38721;53.098;6.596;2023-06-22T15:18:33;22.70;99.90
52859;DHT22;38721;53.098;6.596;2023-06-22T15:21:01;22.80;99.90
52859;DHT22;38721;53.098;6.596;2023-06-22T15:23:30;22.50;99.90
52859;DHT22;38721;53.098;6.596;2023-06-22T15:25:57;22.50;99.90
52859;DHT22;38721;53.098;6.596;2023-06-22T15:28:25;22.60;99.90
52859;DHT22;38721;53.098;6.596;2023-06-22T15:30:51;22.30;99.90
52859;DHT22;38721;53.098;6.596;2023-06-22T15:33:17;22.30;99.90
52859;DHT22;38721;53.098;6.596;2023-06-22T15:35:43;22.60;99.90
52859;DHT22;38721;53.098;6.596;2023-06-22T15:38:09;22.20;99.90
52859;DHT22;38721;53.098;6.596;2023-06-22T15:40:35;22.30;99.90